sensor_id;sensor_type;location;lat;lon;timestamp;pressure;altitude;pressure_sealevel;temperature;humidity
20630;BME280;17386;43.846;25.950;2022-09-09T00:02:02;101186.41;;;23.23;60.84
20630;BME280;17386;43.846;25.950;2022-09-09T00:04:35;101190.63;;;23.15;60.99
20630;BME280;17386;43.846;25.950;2022-09-09T00:07:23;101187.78;;;23.17;60.81
20630;BME280;17386;43.846;25.950;2022-09-09T00:12:53;101195.44;;;23.01;61.22
20630;BME280;17386;43.846;25.950;2022-09-09T00:15:29;101196.78;;;23.06;61.20
20630;BME280;17386;43.846;25.950;2022-09-09T00:18:15;101205.66;;;23.08;60.92
20630;BME280;17386;43.846;25.950;2022-09-09T00:21:00;101209.84;;;23.01;60.90
20630;BME280;17386;43.846;25.950;2022-09-09T00:23:32;101193.09;;;22.96;61.55
20630;BME280;17386;43.846;25.950;2022-09-09T00:28:38;101191.00;;;23.00;61.01
20630;BME280;17386;43.846;25.950;2022-09-09T00:31:16;101198.41;;;22.86;61.58
20630;BME280;17386;43.846;25.950;2022-09-09T00:33:44;101205.13;;;22.81;61.86
20630;BME280;17386;43.846;25.950;2022-09-09T00:36:16;101201.84;;;22.88;62.00
20630;BME280;17386;43.846;25.950;2022-09-09T00:38:52;101200.97;;;22.88;61.61
20630;BME280;17386;43.846;25.950;2022-09-09T00:44:45;101196.13;;;22.80;61.73
20630;BME280;17386;43.846;25.950;2022-09-09T00:47:43;101198.72;;;22.82;61.32
20630;BME280;17386;43.846;25.950;2022-09-09T00:58:34;101197.09;;;22.57;61.82
20630;BME280;17386;43.846;25.950;2022-09-09T01:01:12;101190.72;;;22.58;62.13
20630;BME280;17386;43.846;25.950;2022-09-09T01:03:54;101194.50;;;22.55;61.88
20630;BME280;17386;43.846;25.950;2022-09-09T01:06:31;101189.66;;;22.36;62.67
20630;BME280;17386;43.846;25.950;2022-09-09T01:09:24;101199.66;;;22.47;62.59
20630;BME280;17386;43.846;25.950;2022-09-09T01:15:40;101188.84;;;22.47;62.45
20630;BME280;17386;43.846;25.950;2022-09-09T01:26:32;101185.09;;;22.37;62.64
20630;BME280;17386;43.846;25.950;2022-09-09T01:29:00;101185.50;;;22.44;62.17
20630;BME280;17386;43.846;25.950;2022-09-09T01:31:31;101176.84;;;22.27;62.66
20630;BME280;17386;43.846;25.950;2022-09-09T01:33:58;101167.63;;;22.30;62.73
20630;BME280;17386;43.846;25.950;2022-09-09T01:37:23;101168.88;;;22.37;62.22
20630;BME280;17386;43.846;25.950;2022-09-09T01:39:34;101164.91;;;22.30;62.29
20630;BME280;17386;43.846;25.950;2022-09-09T01:42:06;101158.03;;;22.26;62.23
20630;BME280;17386;43.846;25.950;2022-09-09T01:44:35;101166.16;;;22.26;62.32
20630;BME280;17386;43.846;25.950;2022-09-09T01:47:01;101171.44;;;22.27;62.05
20630;BME280;17386;43.846;25.950;2022-09-09T01:49:28;101168.59;;;22.29;61.88
20630;BME280;17386;43.846;25.950;2022-09-09T01:51:56;101166.28;;;22.35;61.70
20630;BME280;17386;43.846;25.950;2022-09-09T01:54:27;101159.88;;;22.36;61.42
20630;BME280;17386;43.846;25.950;2022-09-09T01:57:19;101154.13;;;22.41;61.26
20630;BME280;17386;43.846;25.950;2022-09-09T02:00:06;101164.59;;;22.46;61.16
20630;BME280;17386;43.846;25.950;2022-09-09T02:05:37;101166.91;;;22.50;60.54
20630;BME280;17386;43.846;25.950;2022-09-09T02:08:09;101164.50;;;22.58;60.05
20630;BME280;17386;43.846;25.950;2022-09-09T02:10:53;101165.94;;;22.62;60.34
20630;BME280;17386;43.846;25.950;2022-09-09T02:13:22;101163.13;;;22.64;59.85
20630;BME280;17386;43.846;25.950;2022-09-09T02:16:03;101161.03;;;22.67;59.58
20630;BME280;17386;43.846;25.950;2022-09-09T02:18:35;101158.56;;;22.64;59.78
20630;BME280;17386;43.846;25.950;2022-09-09T02:21:03;101165.72;;;22.65;59.47
20630;BME280;17386;43.846;25.950;2022-09-09T02:23:34;101166.44;;;22.56;59.45
20630;BME280;17386;43.846;25.950;2022-09-09T02:26:01;101170.50;;;22.51;59.29
20630;BME280;17386;43.846;25.950;2022-09-09T02:28:31;101175.91;;;22.39;59.73
20630;BME280;17386;43.846;25.950;2022-09-09T02:30:58;101172.69;;;22.34;59.86
20630;BME280;17386;43.846;25.950;2022-09-09T02:33:37;101173.41;;;22.25;60.34
20630;BME280;17386;43.846;25.950;2022-09-09T02:36:08;101193.56;;;22.21;60.68
20630;BME280;17386;43.846;25.950;2022-09-09T02:38:41;101194.16;;;22.14;61.00
20630;BME280;17386;43.846;25.950;2022-09-09T02:41:12;101212.41;;;21.99;62.24
20630;BME280;17386;43.846;25.950;2022-09-09T02:43:40;101201.59;;;21.99;63.32
20630;BME280;17386;43.846;25.950;2022-09-09T02:46:23;101197.03;;;21.99;63.43
20630;BME280;17386;43.846;25.950;2022-09-09T02:49:01;101197.13;;;22.10;62.76
20630;BME280;17386;43.846;25.950;2022-09-09T02:51:53;101193.81;;;22.18;62.38
20630;BME280;17386;43.846;25.950;2022-09-09T02:54:31;101190.13;;;22.19;61.54
20630;BME280;17386;43.846;25.950;2022-09-09T02:57:21;101185.56;;;22.20;61.50
20630;BME280;17386;43.846;25.950;2022-09-09T02:59:49;101181.75;;;22.22;61.42
20630;BME280;17386;43.846;25.950;2022-09-09T03:02:16;101188.28;;;22.20;61.42
20630;BME280;17386;43.846;25.950;2022-09-09T03:04:42;101186.66;;;21.93;62.38
20630;BME280;17386;43.846;25.950;2022-09-09T03:07:11;101184.63;;;21.97;62.62
20630;BME280;17386;43.846;25.950;2022-09-09T03:09:38;101184.13;;;22.03;61.79
20630;BME280;17386;43.846;25.950;2022-09-09T03:12:05;101179.59;;;22.03;62.06
20630;BME280;17386;43.846;25.950;2022-09-09T03:14:33;101187.34;;;22.08;61.64
20630;BME280;17386;43.846;25.950;2022-09-09T03:17:00;101178.28;;;22.09;61.53
20630;BME280;17386;43.846;25.950;2022-09-09T03:19:28;101170.25;;;22.07;61.60
20630;BME280;17386;43.846;25.950;2022-09-09T03:21:57;101168.25;;;21.98;61.98
20630;BME280;17386;43.846;25.950;2022-09-09T03:24:25;101166.75;;;21.94;62.10
20630;BME280;17386;43.846;25.950;2022-09-09T03:26:52;101165.03;;;21.93;61.86
20630;BME280;17386;43.846;25.950;2022-09-09T03:29:18;101176.84;;;21.92;61.83
20630;BME280;17386;43.846;25.950;2022-09-09T03:31:45;101172.75;;;21.87;61.66
20630;BME280;17386;43.846;25.950;2022-09-09T03:34:10;101179.94;;;21.75;62.50
20630;BME280;17386;43.846;25.950;2022-09-09T03:36:36;101185.59;;;21.72;62.62
20630;BME280;17386;43.846;25.950;2022-09-09T03:39:03;101181.06;;;21.72;62.23
20630;BME280;17386;43.846;25.950;2022-09-09T03:41:30;101175.91;;;21.80;62.23
20630;BME280;17386;43.846;25.950;2022-09-09T03:43:57;101176.03;;;21.79;62.41
20630;BME280;17386;43.846;25.950;2022-09-09T03:46:25;101174.78;;;21.72;62.57
20630;BME280;17386;43.846;25.950;2022-09-09T03:48:52;101181.91;;;21.73;62.25
20630;BME280;17386;43.846;25.950;2022-09-09T03:51:19;101178.41;;;21.83;62.12
20630;BME280;17386;43.846;25.950;2022-09-09T03:53:46;101184.44;;;21.87;62.16
20630;BME280;17386;43.846;25.950;2022-09-09T03:56:13;101182.00;;;21.95;61.46
20630;BME280;17386;43.846;25.950;2022-09-09T03:58:40;101177.34;;;21.97;61.32
20630;BME280;17386;43.846;25.950;2022-09-09T04:01:10;101178.34;;;21.96;61.70
20630;BME280;17386;43.846;25.950;2022-09-09T04:03:40;101179.19;;;21.97;61.62
20630;BME280;17386;43.846;25.950;2022-09-09T04:06:08;101185.22;;;22.00;61.34
20630;BME280;17386;43.846;25.950;2022-09-09T04:08:36;101179.19;;;21.97;61.55
20630;BME280;17386;43.846;25.950;2022-09-09T04:11:04;101184.38;;;22.00;61.32
20630;BME280;17386;43.846;25.950;2022-09-09T04:13:34;101183.03;;;22.05;60.97
20630;BME280;17386;43.846;25.950;2022-09-09T04:16:03;101188.22;;;22.08;60.94
20630;BME280;17386;43.846;25.950;2022-09-09T04:18:29;101186.78;;;22.16;60.85
20630;BME280;17386;43.846;25.950;2022-09-09T04:20:59;101189.38;;;22.17;60.55
20630;BME280;17386;43.846;25.950;2022-09-09T04:23:27;101195.28;;;22.22;60.61
20630;BME280;17386;43.846;25.950;2022-09-09T04:25:57;101186.69;;;22.28;62.13
20630;BME280;17386;43.846;25.950;2022-09-09T04:28:35;101192.38;;;22.36;60.27
20630;BME280;17386;43.846;25.950;2022-09-09T04:31:08;101188.59;;;22.39;59.51
20630;BME280;17386;43.846;25.950;2022-09-09T04:33:36;101184.84;;;22.29;59.70
20630;BME280;17386;43.846;25.950;2022-09-09T04:36:03;101184.38;;;22.24;60.17
20630;BME280;17386;43.846;25.950;2022-09-09T04:38:28;101186.81;;;22.27;60.52
20630;BME280;17386;43.846;25.950;2022-09-09T04:40:55;101179.94;;;22.34;60.26
20630;BME280;17386;43.846;25.950;2022-09-09T04:43:22;101188.97;;;22.46;59.53
20630;BME280;17386;43.846;25.950;2022-09-09T04:45:50;101192.06;;;22.52;59.41
20630;BME280;17386;43.846;25.950;2022-09-09T04:48:20;101199.41;;;22.50;59.89
20630;BME280;17386;43.846;25.950;2022-09-09T04:51:00;101192.78;;;22.54;59.54
20630;BME280;17386;43.846;25.950;2022-09-09T04:53:28;101197.72;;;22.60;60.02
20630;BME280;17386;43.846;25.950;2022-09-09T04:56:15;101187.09;;;22.57;59.57
20630;BME280;17386;43.846;25.950;2022-09-09T04:58:42;101187.38;;;22.54;59.54
20630;BME280;17386;43.846;25.950;2022-09-09T05:01:20;101201.63;;;22.56;59.21
20630;BME280;17386;43.846;25.950;2022-09-09T05:03:48;101187.72;;;22.50;59.23
20630;BME280;17386;43.846;25.950;2022-09-09T05:06:17;101194.03;;;22.61;58.78
20630;BME280;17386;43.846;25.950;2022-09-09T05:08:43;101196.84;;;22.71;59.03
20630;BME280;17386;43.846;25.950;2022-09-09T05:11:22;101193.41;;;22.69;58.90
20630;BME280;17386;43.846;25.950;2022-09-09T05:13:52;101201.41;;;22.71;58.82
20630;BME280;17386;43.846;25.950;2022-09-09T05:16:20;101188.34;;;22.64;59.56
20630;BME280;17386;43.846;25.950;2022-09-09T05:18:47;101195.13;;;22.70;59.56
20630;BME280;17386;43.846;25.950;2022-09-09T05:21:14;101196.50;;;22.76;59.50
20630;BME280;17386;43.846;25.950;2022-09-09T05:23:39;101204.13;;;22.82;58.94
20630;BME280;17386;43.846;25.950;2022-09-09T05:26:11;101205.00;;;22.82;58.97
20630;BME280;17386;43.846;25.950;2022-09-09T05:28:38;101206.63;;;22.96;57.88
20630;BME280;17386;43.846;25.950;2022-09-09T05:31:06;101193.59;;;23.01;58.23
20630;BME280;17386;43.846;25.950;2022-09-09T05:33:36;101193.06;;;23.18;58.04
20630;BME280;17386;43.846;25.950;2022-09-09T05:36:07;101192.78;;;23.33;57.81
20630;BME280;17386;43.846;25.950;2022-09-09T05:38:34;101194.41;;;23.24;57.68
20630;BME280;17386;43.846;25.950;2022-09-09T05:41:00;101194.78;;;23.31;58.16
20630;BME280;17386;43.846;25.950;2022-09-09T05:43:27;101194.50;;;23.45;57.68
20630;BME280;17386;43.846;25.950;2022-09-09T05:46:03;101186.34;;;23.56;57.10
20630;BME280;17386;43.846;25.950;2022-09-09T05:48:35;101193.88;;;23.64;58.58
20630;BME280;17386;43.846;25.950;2022-09-09T05:51:01;101186.72;;;23.63;59.22
20630;BME280;17386;43.846;25.950;2022-09-09T05:53:28;101168.75;;;23.62;59.32
20630;BME280;17386;43.846;25.950;2022-09-09T05:56:15;101169.94;;;23.58;59.58
20630;BME280;17386;43.846;25.950;2022-09-09T05:58:41;101177.59;;;23.64;59.69
20630;BME280;17386;43.846;25.950;2022-09-09T06:01:32;101165.50;;;23.68;58.41
20630;BME280;17386;43.846;25.950;2022-09-09T06:04:00;101172.50;;;23.82;57.86
20630;BME280;17386;43.846;25.950;2022-09-09T06:06:32;101168.59;;;23.95;57.85
20630;BME280;17386;43.846;25.950;2022-09-09T06:09:04;101161.25;;;24.07;57.43
20630;BME280;17386;43.846;25.950;2022-09-09T06:11:36;101152.91;;;24.20;56.67
20630;BME280;17386;43.846;25.950;2022-09-09T06:14:02;101147.22;;;24.23;56.18
20630;BME280;17386;43.846;25.950;2022-09-09T06:16:29;101160.06;;;24.42;56.52
20630;BME280;17386;43.846;25.950;2022-09-09T06:18:56;101148.75;;;24.58;56.17
20630;BME280;17386;43.846;25.950;2022-09-09T06:23:51;101157.41;;;24.82;55.35
20630;BME280;17386;43.846;25.950;2022-09-09T06:26:21;101173.47;;;24.85;54.47
20630;BME280;17386;43.846;25.950;2022-09-09T06:28:49;101167.91;;;24.96;54.06
20630;BME280;17386;43.846;25.950;2022-09-09T06:31:16;101167.44;;;25.12;54.16
20630;BME280;17386;43.846;25.950;2022-09-09T06:33:43;101165.16;;;25.17;53.28
20630;BME280;17386;43.846;25.950;2022-09-09T06:36:14;101179.34;;;25.30;53.84
20630;BME280;17386;43.846;25.950;2022-09-09T06:38:41;101170.25;;;25.41;52.74
20630;BME280;17386;43.846;25.950;2022-09-09T06:41:08;101165.81;;;25.59;52.75
20630;BME280;17386;43.846;25.950;2022-09-09T06:43:35;101163.59;;;25.74;52.41
20630;BME280;17386;43.846;25.950;2022-09-09T06:46:03;101174.75;;;25.90;52.58
20630;BME280;17386;43.846;25.950;2022-09-09T06:48:29;101169.16;;;26.02;51.21
20630;BME280;17386;43.846;25.950;2022-09-09T06:51:02;101160.41;;;26.17;51.23
20630;BME280;17386;43.846;25.950;2022-09-09T06:53:28;101160.25;;;26.29;50.77
20630;BME280;17386;43.846;25.950;2022-09-09T06:55:53;101168.00;;;26.43;50.24
20630;BME280;17386;43.846;25.950;2022-09-09T06:58:20;101168.84;;;26.43;49.21
20630;BME280;17386;43.846;25.950;2022-09-09T07:00:47;101177.25;;;26.60;49.32
20630;BME280;17386;43.846;25.950;2022-09-09T07:03:13;101174.75;;;26.76;49.79
20630;BME280;17386;43.846;25.950;2022-09-09T07:05:39;101172.84;;;26.86;48.24
20630;BME280;17386;43.846;25.950;2022-09-09T07:08:05;101170.66;;;26.99;48.56
20630;BME280;17386;43.846;25.950;2022-09-09T07:10:31;101176.31;;;27.16;48.23
20630;BME280;17386;43.846;25.950;2022-09-09T07:12:57;101174.09;;;27.29;48.27
20630;BME280;17386;43.846;25.950;2022-09-09T07:15:23;101174.91;;;27.39;47.73
20630;BME280;17386;43.846;25.950;2022-09-09T07:17:50;101158.31;;;27.50;47.69
20630;BME280;17386;43.846;25.950;2022-09-09T07:20:15;101160.97;;;27.60;46.57
20630;BME280;17386;43.846;25.950;2022-09-09T07:22:41;101164.50;;;27.70;46.90
20630;BME280;17386;43.846;25.950;2022-09-09T07:25:07;101169.91;;;27.80;46.73
20630;BME280;17386;43.846;25.950;2022-09-09T07:27:33;101159.44;;;27.93;46.38
20630;BME280;17386;43.846;25.950;2022-09-09T07:29:59;101167.94;;;28.08;45.47
20630;BME280;17386;43.846;25.950;2022-09-09T07:32:24;101168.22;;;28.05;45.92
20630;BME280;17386;43.846;25.950;2022-09-09T07:34:51;101167.53;;;28.21;45.41
20630;BME280;17386;43.846;25.950;2022-09-09T07:37:17;101167.59;;;28.29;45.21
20630;BME280;17386;43.846;25.950;2022-09-09T07:39:43;101169.94;;;28.42;45.07
20630;BME280;17386;43.846;25.950;2022-09-09T07:42:09;101170.34;;;28.55;44.69
20630;BME280;17386;43.846;25.950;2022-09-09T07:44:37;101178.28;;;28.66;43.59
20630;BME280;17386;43.846;25.950;2022-09-09T07:47:05;101181.59;;;28.78;43.46
20630;BME280;17386;43.846;25.950;2022-09-09T07:49:30;101183.34;;;28.87;43.37
20630;BME280;17386;43.846;25.950;2022-09-09T07:51:56;101198.31;;;29.01;43.73
20630;BME280;17386;43.846;25.950;2022-09-09T07:54:24;101188.03;;;28.95;44.14
20630;BME280;17386;43.846;25.950;2022-09-09T07:56:51;101185.66;;;28.74;43.74
20630;BME280;17386;43.846;25.950;2022-09-09T07:59:17;101173.97;;;28.89;44.14
20630;BME280;17386;43.846;25.950;2022-09-09T08:01:46;101170.47;;;29.05;43.81
20630;BME280;17386;43.846;25.950;2022-09-09T08:04:17;101168.81;;;29.21;43.70
20630;BME280;17386;43.846;25.950;2022-09-09T08:06:47;101169.88;;;29.36;43.80
20630;BME280;17386;43.846;25.950;2022-09-09T08:09:13;101168.66;;;29.30;43.68
20630;BME280;17386;43.846;25.950;2022-09-09T08:11:42;101179.41;;;29.15;43.69
20630;BME280;17386;43.846;25.950;2022-09-09T08:14:08;101180.44;;;29.14;44.00
20630;BME280;17386;43.846;25.950;2022-09-09T08:16:37;101189.16;;;29.10;44.50
20630;BME280;17386;43.846;25.950;2022-09-09T08:19:04;101198.34;;;29.09;44.56
20630;BME280;17386;43.846;25.950;2022-09-09T08:21:32;101191.56;;;29.21;44.44
20630;BME280;17386;43.846;25.950;2022-09-09T08:24:00;101189.84;;;29.20;44.23
20630;BME280;17386;43.846;25.950;2022-09-09T08:26:31;101179.13;;;29.35;44.43
20630;BME280;17386;43.846;25.950;2022-09-09T08:28:58;101173.53;;;29.45;44.02
20630;BME280;17386;43.846;25.950;2022-09-09T08:31:30;101167.38;;;29.51;43.51
20630;BME280;17386;43.846;25.950;2022-09-09T08:33:58;101148.84;;;29.36;43.45
20630;BME280;17386;43.846;25.950;2022-09-09T08:36:30;101149.56;;;29.47;43.91
20630;BME280;17386;43.846;25.950;2022-09-09T08:38:59;101144.78;;;29.40;43.54
20630;BME280;17386;43.846;25.950;2022-09-09T08:50:30;101123.16;;;30.20;42.70
20630;BME280;17386;43.846;25.950;2022-09-09T08:55:52;101126.22;;;30.34;42.08
20630;BME280;17386;43.846;25.950;2022-09-09T08:58:25;101119.81;;;30.49;41.86
20630;BME280;17386;43.846;25.950;2022-09-09T09:09:06;101116.03;;;31.06;41.25
20630;BME280;17386;43.846;25.950;2022-09-09T09:11:40;101108.72;;;31.21;40.24
20630;BME280;17386;43.846;25.950;2022-09-09T09:14:23;101107.50;;;31.32;40.15
20630;BME280;17386;43.846;25.950;2022-09-09T09:16:57;101105.84;;;31.15;39.88
20630;BME280;17386;43.846;25.950;2022-09-09T09:19:24;101107.38;;;31.25;40.21
20630;BME280;17386;43.846;25.950;2022-09-09T09:24:54;101124.31;;;31.37;39.63
20630;BME280;17386;43.846;25.950;2022-09-09T09:27:21;101115.69;;;31.09;39.59
20630;BME280;17386;43.846;25.950;2022-09-09T09:29:54;101109.81;;;31.12;39.84
20630;BME280;17386;43.846;25.950;2022-09-09T09:32:22;101091.75;;;31.26;39.40
20630;BME280;17386;43.846;25.950;2022-09-09T09:34:56;101087.97;;;31.50;39.33
20630;BME280;17386;43.846;25.950;2022-09-09T09:37:31;101096.47;;;31.63;38.37
20630;BME280;17386;43.846;25.950;2022-09-09T09:40:13;101091.75;;;31.80;38.75
20630;BME280;17386;43.846;25.950;2022-09-09T09:42:53;101095.03;;;31.98;38.41
20630;BME280;17386;43.846;25.950;2022-09-09T09:45:35;101085.72;;;31.99;38.39
20630;BME280;17386;43.846;25.950;2022-09-09T09:48:09;101075.19;;;32.03;37.75
20630;BME280;17386;43.846;25.950;2022-09-09T09:50:53;101083.31;;;32.19;37.65
20630;BME280;17386;43.846;25.950;2022-09-09T09:53:23;101081.78;;;32.31;36.70
20630;BME280;17386;43.846;25.950;2022-09-09T09:55:54;101078.78;;;32.41;36.26
20630;BME280;17386;43.846;25.950;2022-09-09T09:58:20;101079.44;;;32.58;36.39
20630;BME280;17386;43.846;25.950;2022-09-09T10:00:50;101076.66;;;32.73;36.06
20630;BME280;17386;43.846;25.950;2022-09-09T10:03:23;101076.03;;;32.41;35.58
20630;BME280;17386;43.846;25.950;2022-09-09T10:05:49;101083.13;;;32.65;35.85
20630;BME280;17386;43.846;25.950;2022-09-09T10:08:16;101076.50;;;32.89;36.03
20630;BME280;17386;43.846;25.950;2022-09-09T10:16:00;101082.22;;;33.24;34.54
20630;BME280;17386;43.846;25.950;2022-09-09T10:27:07;101075.34;;;33.56;33.49
20630;BME280;17386;43.846;25.950;2022-09-09T10:40:32;101066.78;;;33.44;33.44
20630;BME280;17386;43.846;25.950;2022-09-09T10:53:16;101059.88;;;32.82;34.30
20630;BME280;17386;43.846;25.950;2022-09-09T10:55:52;101067.41;;;32.88;34.34
20630;BME280;17386;43.846;25.950;2022-09-09T11:01:14;101057.69;;;32.78;34.70
20630;BME280;17386;43.846;25.950;2022-09-09T11:03:42;101053.91;;;32.79;34.98
20630;BME280;17386;43.846;25.950;2022-09-09T11:06:22;101053.66;;;32.88;34.62
20630;BME280;17386;43.846;25.950;2022-09-09T11:08:51;101062.63;;;32.97;34.12
20630;BME280;17386;43.846;25.950;2022-09-09T11:11:56;101056.47;;;32.95;34.38
20630;BME280;17386;43.846;25.950;2022-09-09T11:14:29;101043.84;;;32.71;34.34
20630;BME280;17386;43.846;25.950;2022-09-09T11:17:04;101046.31;;;32.66;34.50
20630;BME280;17386;43.846;25.950;2022-09-09T11:25:26;101042.97;;;32.85;33.69
20630;BME280;17386;43.846;25.950;2022-09-09T11:41:51;101027.50;;;32.99;34.03
20630;BME280;17386;43.846;25.950;2022-09-09T11:44:26;101034.28;;;33.18;33.25
20630;BME280;17386;43.846;25.950;2022-09-09T11:46:53;101023.84;;;33.35;33.71
20630;BME280;17386;43.846;25.950;2022-09-09T11:49:29;101033.94;;;33.42;33.71
20630;BME280;17386;43.846;25.950;2022-09-09T11:52:34;101026.91;;;33.40;33.38
20630;BME280;17386;43.846;25.950;2022-09-09T11:55:09;101025.06;;;33.47;33.62
20630;BME280;17386;43.846;25.950;2022-09-09T11:57:37;101018.13;;;33.51;33.34
20630;BME280;17386;43.846;25.950;2022-09-09T12:00:04;101008.34;;;33.48;33.82
20630;BME280;17386;43.846;25.950;2022-09-09T12:02:30;101017.41;;;33.42;33.71
20630;BME280;17386;43.846;25.950;2022-09-09T12:05:09;101015.38;;;33.51;33.88
20630;BME280;17386;43.846;25.950;2022-09-09T12:07:52;101010.03;;;33.71;32.78
20630;BME280;17386;43.846;25.950;2022-09-09T12:10:32;101011.91;;;33.92;33.26
20630;BME280;17386;43.846;25.950;2022-09-09T12:13:27;101006.25;;;34.00;32.98
20630;BME280;17386;43.846;25.950;2022-09-09T12:15:57;101007.16;;;33.86;31.96
20630;BME280;17386;43.846;25.950;2022-09-09T12:18:37;101000.69;;;33.93;32.52
20630;BME280;17386;43.846;25.950;2022-09-09T12:21:17;100998.91;;;33.86;32.09
20630;BME280;17386;43.846;25.950;2022-09-09T12:24:07;100984.66;;;33.82;32.10
20630;BME280;17386;43.846;25.950;2022-09-09T12:26:40;100989.13;;;33.83;32.78
20630;BME280;17386;43.846;25.950;2022-09-09T12:32:01;100990.00;;;33.62;33.03
20630;BME280;17386;43.846;25.950;2022-09-09T12:34:53;100980.25;;;33.60;33.28
20630;BME280;17386;43.846;25.950;2022-09-09T12:37:35;100983.59;;;33.55;33.13
20630;BME280;17386;43.846;25.950;2022-09-09T12:40:28;100969.84;;;33.34;33.31
20630;BME280;17386;43.846;25.950;2022-09-09T12:42:53;100969.53;;;33.22;33.23
20630;BME280;17386;43.846;25.950;2022-09-09T12:45:25;100965.59;;;33.31;32.94
20630;BME280;17386;43.846;25.950;2022-09-09T12:47:54;100958.53;;;33.43;33.66
20630;BME280;17386;43.846;25.950;2022-09-09T12:50:22;100958.97;;;33.47;33.18
20630;BME280;17386;43.846;25.950;2022-09-09T12:52:52;100955.38;;;33.46;33.73
20630;BME280;17386;43.846;25.950;2022-09-09T12:55:25;100943.69;;;33.44;33.56
20630;BME280;17386;43.846;25.950;2022-09-09T12:57:53;100949.13;;;33.38;33.75
20630;BME280;17386;43.846;25.950;2022-09-09T13:00:21;100948.94;;;33.39;33.73
20630;BME280;17386;43.846;25.950;2022-09-09T13:02:54;100920.88;;;33.29;33.72
20630;BME280;17386;43.846;25.950;2022-09-09T13:05:25;100933.19;;;33.55;33.85
20630;BME280;17386;43.846;25.950;2022-09-09T13:07:51;100936.91;;;33.75;34.00
20630;BME280;17386;43.846;25.950;2022-09-09T13:10:28;100932.84;;;33.92;33.14
20630;BME280;17386;43.846;25.950;2022-09-09T13:12:55;100932.75;;;33.86;33.81
20630;BME280;17386;43.846;25.950;2022-09-09T13:15:22;100932.03;;;33.98;33.92
20630;BME280;17386;43.846;25.950;2022-09-09T13:17:57;100928.44;;;33.98;33.27
20630;BME280;17386;43.846;25.950;2022-09-09T13:20:23;100929.31;;;34.05;32.86
20630;BME280;17386;43.846;25.950;2022-09-09T13:22:51;100933.16;;;34.17;32.89
20630;BME280;17386;43.846;25.950;2022-09-09T13:25:21;100939.28;;;34.06;32.40
20630;BME280;17386;43.846;25.950;2022-09-09T13:28:02;100926.69;;;33.97;32.67
20630;BME280;17386;43.846;25.950;2022-09-09T13:30:33;100925.97;;;33.88;32.28
20630;BME280;17386;43.846;25.950;2022-09-09T13:35:29;100926.06;;;33.95;32.79
20630;BME280;17386;43.846;25.950;2022-09-09T13:37:55;100925.34;;;33.86;33.01
20630;BME280;17386;43.846;25.950;2022-09-09T13:40:22;100927.22;;;33.79;32.50
20630;BME280;17386;43.846;25.950;2022-09-09T13:42:53;100919.28;;;33.69;32.60
20630;BME280;17386;43.846;25.950;2022-09-09T13:45:22;100924.38;;;33.66;33.04
20630;BME280;17386;43.846;25.950;2022-09-09T13:47:52;100913.72;;;33.56;33.69
20630;BME280;17386;43.846;25.950;2022-09-09T13:50:27;100913.06;;;33.33;33.79
20630;BME280;17386;43.846;25.950;2022-09-09T13:52:57;100912.25;;;33.11;34.29
20630;BME280;17386;43.846;25.950;2022-09-09T13:55:25;100914.34;;;33.09;34.84
20630;BME280;17386;43.846;25.950;2022-09-09T13:57:53;100900.53;;;33.02;35.23
20630;BME280;17386;43.846;25.950;2022-09-09T14:00:19;100907.88;;;32.95;35.00
20630;BME280;17386;43.846;25.950;2022-09-09T14:02:44;100907.13;;;32.86;35.59
20630;BME280;17386;43.846;25.950;2022-09-09T14:05:10;100903.63;;;32.78;35.64
20630;BME280;17386;43.846;25.950;2022-09-09T14:07:37;100900.16;;;32.69;35.31
20630;BME280;17386;43.846;25.950;2022-09-09T14:10:04;100894.53;;;32.56;35.31
20630;BME280;17386;43.846;25.950;2022-09-09T14:12:30;100905.25;;;32.51;35.67
20630;BME280;17386;43.846;25.950;2022-09-09T14:14:55;100904.13;;;32.45;35.92
20630;BME280;17386;43.846;25.950;2022-09-09T14:17:21;100900.28;;;32.39;36.36
20630;BME280;17386;43.846;25.950;2022-09-09T14:19:48;100894.38;;;32.28;36.42
20630;BME280;17386;43.846;25.950;2022-09-09T14:22:14;100900.09;;;32.26;36.38
20630;BME280;17386;43.846;25.950;2022-09-09T14:24:39;100896.66;;;32.24;37.13
20630;BME280;17386;43.846;25.950;2022-09-09T14:27:06;100905.50;;;32.20;38.20
20630;BME280;17386;43.846;25.950;2022-09-09T14:29:31;100891.84;;;32.11;38.67
20630;BME280;17386;43.846;25.950;2022-09-09T14:31:58;100895.84;;;32.09;39.05
20630;BME280;17386;43.846;25.950;2022-09-09T14:34:26;100897.84;;;32.00;39.40
20630;BME280;17386;43.846;25.950;2022-09-09T14:36:51;100887.22;;;31.82;39.27
20630;BME280;17386;43.846;25.950;2022-09-09T14:39:17;100898.09;;;31.91;39.31
20630;BME280;17386;43.846;25.950;2022-09-09T14:41:42;100887.50;;;31.88;39.64
20630;BME280;17386;43.846;25.950;2022-09-09T14:44:08;100890.25;;;31.88;39.88
20630;BME280;17386;43.846;25.950;2022-09-09T14:46:33;100890.25;;;31.88;39.89
20630;BME280;17386;43.846;25.950;2022-09-09T14:48:59;100877.34;;;31.73;39.86
20630;BME280;17386;43.846;25.950;2022-09-09T14:51:26;100886.25;;;31.75;39.88
20630;BME280;17386;43.846;25.950;2022-09-09T14:53:55;100897.22;;;31.75;40.04
20630;BME280;17386;43.846;25.950;2022-09-09T14:56:24;100892.34;;;31.71;39.99
20630;BME280;17386;43.846;25.950;2022-09-09T14:58:50;100890.44;;;31.71;39.79
20630;BME280;17386;43.846;25.950;2022-09-09T15:01:18;100891.19;;;31.65;40.29